createdAt,value
2023-03-21T00:01:30.424Z,10.40
2023-03-21T00:04:51.374Z,13.90
2023-03-21T00:07:56.364Z,12.70
2023-03-21T00:11:05.862Z,12.15
2023-03-21T00:14:15.217Z,18.38
2023-03-21T00:17:19.126Z,13.43
2023-03-21T00:20:27.752Z,15.75
2023-03-21T00:23:41.216Z,14.57
2023-03-21T00:26:46.358Z,14.75
2023-03-21T00:29:50.796Z,12.57
2023-03-21T00:32:56.780Z,15.85
2023-03-21T00:36:06.680Z,12.15
2023-03-21T00:39:11.420Z,16.52
2023-03-21T00:42:14.791Z,15.43
2023-03-21T00:45:28.424Z,19.50
2023-03-21T00:48:31.887Z,17.85
2023-03-21T00:51:35.606Z,19.55
2023-03-21T00:54:39.064Z,17.40
2023-03-21T00:57:56.157Z,20.85
2023-03-21T01:01:04.794Z,19.58
2023-03-21T01:04:15.205Z,32.35
2023-03-21T01:07:28.684Z,28.40
2023-03-21T01:10:32.618Z,32.55
2023-03-21T01:13:40.677Z,37.45
2023-03-21T01:16:48.248Z,35.50
2023-03-21T01:19:52.508Z,40.97
2023-03-21T01:23:00.573Z,49.33
2023-03-21T01:26:14.957Z,38.70
2023-03-21T01:29:20.384Z,36.88
2023-03-21T01:32:24.143Z,42.53
2023-03-21T01:35:32.017Z,38.42
2023-03-21T01:38:41.928Z,36.35
2023-03-21T01:41:46.230Z,33.80
2023-03-21T01:45:01.548Z,33.30
2023-03-21T01:48:18.087Z,33.10
2023-03-21T01:51:27.996Z,35.88
2023-03-21T01:54:37.777Z,29.35
2023-03-21T01:57:55.196Z,28.05
2023-03-21T02:01:12.321Z,30.15
2023-03-21T02:04:30.836Z,28.63
2023-03-21T02:07:59.186Z,26.83
2023-03-21T02:11:04.621Z,30.02
2023-03-21T02:14:29.369Z,26.15
2023-03-21T02:17:51.598Z,25.73
2023-03-21T02:21:13.714Z,27.50
2023-03-21T02:24:37.461Z,31.20
2023-03-21T02:27:52.545Z,28.30
2023-03-21T02:31:02.260Z,34.15
2023-03-21T02:34:10.318Z,27.98
2023-03-21T02:37:36.669Z,27.85
2023-03-21T02:40:51.367Z,33.35
2023-03-21T02:44:11.472Z,30.02
2023-03-21T02:47:29.635Z,35.65
2023-03-21T02:50:44.042Z,36.80
2023-03-21T02:54:04.560Z,33.72
2023-03-21T02:57:14.846Z,39.38
2023-03-21T03:00:34.491Z,38.92
2023-03-21T03:03:40.035Z,49.58
2023-03-21T03:06:50.172Z,45.33
2023-03-21T03:10:01.454Z,40.73
2023-03-21T03:13:19.985Z,54.03
2023-03-21T03:16:37.264Z,39.10
2023-03-21T03:20:04.339Z,49.67
2023-03-21T03:23:20.521Z,44.78
2023-03-21T03:26:31.409Z,33.70
2023-03-21T03:29:38.012Z,38.30
2023-03-21T03:32:53.251Z,43.73
2023-03-21T03:36:04.936Z,44.72
2023-03-21T03:39:14.328Z,32.97
2023-03-21T03:42:28.760Z,27.42
2023-03-21T03:46:06.796Z,36.15
2023-03-21T03:49:23.406Z,33.33
2023-03-21T03:52:30.004Z,42.40
2023-03-21T03:55:40.159Z,36.80
2023-03-21T03:58:48.626Z,42.45
2023-03-21T04:01:56.057Z,34.45
2023-03-21T04:05:01.781Z,32.03
2023-03-21T04:08:07.011Z,27.48
2023-03-21T04:11:17.015Z,31.52
2023-03-21T04:14:42.076Z,64.78
2023-03-21T04:17:48.362Z,44.10
2023-03-21T04:21:01.888Z,34.72
2023-03-21T04:24:07.890Z,37.25
2023-03-21T04:27:12.100Z,31.40
2023-03-21T04:30:25.377Z,36.40
2023-03-21T04:33:38.972Z,31.17
2023-03-21T04:36:50.034Z,33.53
2023-03-21T04:39:53.651Z,34.40
2023-03-21T04:43:03.382Z,34.28
2023-03-21T04:46:07.609Z,30.60
2023-03-21T04:49:13.328Z,39.50
2023-03-21T04:52:25.298Z,27.83
2023-03-21T04:55:32.084Z,30.95
2023-03-21T04:58:38.373Z,22.63
2023-03-21T05:01:44.144Z,26.13
2023-03-21T05:04:52.800Z,24.73
2023-03-21T05:08:06.380Z,26.73
2023-03-21T05:11:13.519Z,32.76
2023-03-21T05:14:19.267Z,24.05
2023-03-21T05:17:28.899Z,31.30
2023-03-21T05:20:34.116Z,33.63
2023-03-21T05:23:44.580Z,31.55
2023-03-21T05:26:52.875Z,34.22
2023-03-21T05:29:59.763Z,43.22
2023-03-21T05:33:06.659Z,37.40
2023-03-21T05:36:11.864Z,35.35
2023-03-21T05:39:16.065Z,31.63
2023-03-21T05:42:28.058Z,42.85
2023-03-21T05:45:37.211Z,30.77
2023-03-21T05:48:41.130Z,27.67
2023-03-21T05:51:56.459Z,28.02
2023-03-21T05:55:07.497Z,24.83
2023-03-21T05:58:11.842Z,27.67
2023-03-21T06:01:29.613Z,23.03
2023-03-21T06:04:43.015Z,30.35
2023-03-21T06:07:47.593Z,29.02
2023-03-21T06:10:51.540Z,32.05
2023-03-21T06:13:55.571Z,35.13
2023-03-21T06:17:00.063Z,32.80
2023-03-21T06:20:14.068Z,36.35
2023-03-21T06:23:32.450Z,34.78
2023-03-21T06:26:46.969Z,31.95
2023-03-21T06:30:01.771Z,39.15
2023-03-21T06:33:15.812Z,38.17
2023-03-21T06:36:28.792Z,35.58
2023-03-21T06:39:33.856Z,34.28
2023-03-21T06:42:38.018Z,33.35
2023-03-21T06:45:47.220Z,34.55
2023-03-21T06:48:52.384Z,37.22
2023-03-21T06:51:56.260Z,36.63
2023-03-21T06:55:00.572Z,34.97
2023-03-21T06:58:04.790Z,41.42
2023-03-21T07:01:09.251Z,33.15
2023-03-21T07:04:27.515Z,35.63
2023-03-21T07:10:45.264Z,34.20
2023-03-21T07:13:52.260Z,37.17
2023-03-21T07:16:56.286Z,40.40
2023-03-21T07:20:00.704Z,37.53
2023-03-21T07:23:16.196Z,40.65
2023-03-21T07:26:33.661Z,37.10
2023-03-21T07:29:36.884Z,39.67
2023-03-21T07:32:40.351Z,37.70
2023-03-21T07:35:43.905Z,37.05
2023-03-21T07:38:48.947Z,36.25
2023-03-21T07:41:57.668Z,36.40
2023-03-21T07:45:21.536Z,41.78
2023-03-21T07:48:30.930Z,38.13
2023-03-21T07:51:36.195Z,33.17
2023-03-21T07:54:45.205Z,31.05
2023-03-21T07:57:54.321Z,36.05
2023-03-21T08:00:59.108Z,30.50
2023-03-21T08:04:09.158Z,24.05
2023-03-21T08:07:13.086Z,29.63
2023-03-21T08:10:17.716Z,31.45
2023-03-21T08:13:21.580Z,28.23
2023-03-21T08:16:25.281Z,20.58
2023-03-21T08:19:29.313Z,19.50
2023-03-21T08:22:37.688Z,22.35
2023-03-21T08:25:44.790Z,18.00
2023-03-21T08:28:48.374Z,18.60
2023-03-21T08:31:52.061Z,18.45
2023-03-21T08:35:10.423Z,21.02
2023-03-21T08:41:26.430Z,16.60
2023-03-21T08:44:29.937Z,19.23
2023-03-21T08:47:33.996Z,18.73
2023-03-21T08:50:37.877Z,16.45
2023-03-21T08:53:42.052Z,19.00
2023-03-21T08:56:45.728Z,18.40
2023-03-21T08:59:49.337Z,19.35
2023-03-21T09:03:05.493Z,15.85
2023-03-21T09:06:11.616Z,16.30
2023-03-21T09:09:15.979Z,16.13
2023-03-21T09:12:30.317Z,13.85
2023-03-21T09:15:35.760Z,17.85
2023-03-21T09:18:47.597Z,14.77
2023-03-21T09:21:52.872Z,19.38
2023-03-21T09:24:57.912Z,15.87
2023-03-21T09:28:02.547Z,16.98
2023-03-21T09:31:06.902Z,17.15
2023-03-21T09:34:11.981Z,15.98
2023-03-21T09:37:16.012Z,13.35
2023-03-21T09:40:22.113Z,14.48
2023-03-21T09:43:33.706Z,14.60
2023-03-21T09:46:50.715Z,12.75
2023-03-21T09:50:14.631Z,15.50
2023-03-21T09:53:19.142Z,14.02
2023-03-21T09:56:23.146Z,15.75
2023-03-21T09:59:33.912Z,17.25
2023-03-21T10:02:56.908Z,17.90
2023-03-21T10:06:04.260Z,16.75
2023-03-21T10:09:15.969Z,19.45
2023-03-21T10:12:22.431Z,19.02
2023-03-21T10:15:27.482Z,16.67
2023-03-21T10:18:32.040Z,18.27
2023-03-21T10:21:59.333Z,18.38
2023-03-21T10:25:17.645Z,20.02
2023-03-21T10:28:22.939Z,17.33
2023-03-21T10:31:32.404Z,18.10
2023-03-21T10:34:47.332Z,18.05
2023-03-21T10:37:52.291Z,22.23
2023-03-21T10:40:56.676Z,18.52
2023-03-21T10:44:17.693Z,18.85
2023-03-21T10:47:23.348Z,20.77
2023-03-21T10:50:30.713Z,16.42
2023-03-21T10:53:36.830Z,17.60
2023-03-21T10:56:53.891Z,16.58
2023-03-21T10:59:59.091Z,17.88
2023-03-21T11:03:03.990Z,16.35
2023-03-21T11:06:12.965Z,15.98
2023-03-21T11:09:18.317Z,34.33
2023-03-21T11:12:37.696Z,27.98
2023-03-21T11:15:53.670Z,16.40
2023-03-21T11:18:58.424Z,13.68
2023-03-21T11:22:09.671Z,19.45
2023-03-21T11:25:34.265Z,13.82
2023-03-21T11:28:40.374Z,55.58
2023-03-21T11:31:45.308Z,19.27
2023-03-21T11:35:05.995Z,21.63
2023-03-21T11:38:26.807Z,15.82
2023-03-21T11:41:32.814Z,16.95
2023-03-21T11:44:43.589Z,15.25
2023-03-21T11:47:54.602Z,22.75
2023-03-21T11:51:04.637Z,16.58
2023-03-21T11:54:12.911Z,26.23
2023-03-21T11:57:28.279Z,21.30
2023-03-21T12:00:39.352Z,16.50
2023-03-21T12:04:01.752Z,18.27
2023-03-21T12:07:24.293Z,15.32
2023-03-21T12:10:33.444Z,13.27
2023-03-21T12:13:54.365Z,36.78
2023-03-21T12:16:57.730Z,62.97
2023-03-21T12:20:10.810Z,34.53
2023-03-21T12:23:18.798Z,70.63
2023-03-21T12:26:24.582Z,90.97
2023-03-21T12:29:52.729Z,61.28
2023-03-21T12:33:11.120Z,64.55
2023-03-21T12:36:30.074Z,73.35
2023-03-21T12:39:37.650Z,62.13
2023-03-21T12:42:53.575Z,30.00
2023-03-21T12:46:10.758Z,25.83
2023-03-21T12:49:17.164Z,18.65
2023-03-21T12:52:30.185Z,15.48
2023-03-21T12:55:46.329Z,19.42
2023-03-21T12:59:01.723Z,18.02
2023-03-21T13:02:17.253Z,17.55
2023-03-21T13:05:43.853Z,13.60
2023-03-21T13:08:51.176Z,17.88
2023-03-21T13:11:57.536Z,19.17
2023-03-21T13:15:15.107Z,15.90
2023-03-21T13:18:34.147Z,18.93
2023-03-21T13:21:47.293Z,17.40
2023-03-21T13:24:56.905Z,22.85
2023-03-21T13:28:05.766Z,25.58
2023-03-21T13:31:17.776Z,26.30
2023-03-21T13:34:22.977Z,24.63
2023-03-21T13:37:31.147Z,24.27
2023-03-21T13:40:44.937Z,27.02
2023-03-21T13:43:58.029Z,28.25
2023-03-21T13:47:03.041Z,29.05
2023-03-21T13:50:19.289Z,26.30
2023-03-21T13:53:34.383Z,25.67
2023-03-21T13:56:47.134Z,34.53
2023-03-21T13:59:50.771Z,39.50
2023-03-21T14:03:00.742Z,33.67
2023-03-21T14:06:04.382Z,29.23
2023-03-21T14:09:22.136Z,28.08
2023-03-21T14:12:29.287Z,30.27
2023-03-21T14:15:54.917Z,31.00
2023-03-21T14:19:05.749Z,37.58
2023-03-21T14:22:14.049Z,29.52
2023-03-21T14:25:20.312Z,35.70
2023-03-21T14:28:30.669Z,72.82
2023-03-21T14:31:34.833Z,31.75
2023-03-21T14:34:39.424Z,31.58
2023-03-21T14:37:48.056Z,32.38
2023-03-21T14:40:53.796Z,54.75
2023-03-21T14:44:03.767Z,48.00
2023-03-21T14:47:19.336Z,29.20
2023-03-21T14:50:25.851Z,45.85
2023-03-21T14:53:31.004Z,59.33
2023-03-21T14:56:36.226Z,69.47
2023-03-21T14:59:41.133Z,59.13
2023-03-21T15:02:46.645Z,50.28
2023-03-21T15:05:52.180Z,43.33
2023-03-21T15:09:01.623Z,85.28
2023-03-21T15:12:09.548Z,39.15
2023-03-21T15:15:16.131Z,30.65
2023-03-21T15:18:29.875Z,32.40
2023-03-21T15:21:36.147Z,27.83
2023-03-21T15:24:42.018Z,48.45
2023-03-21T15:27:45.713Z,42.80
2023-03-21T15:30:51.176Z,32.35
2023-03-21T15:33:57.667Z,31.33
2023-03-21T15:37:16.504Z,32.39
2023-03-21T15:40:22.480Z,24.45
2023-03-21T15:43:39.757Z,38.55
2023-03-21T15:46:55.899Z,46.05
2023-03-21T15:50:11.849Z,31.88
2023-03-21T15:53:18.310Z,66.88
2023-03-21T15:56:22.451Z,66.10
2023-03-21T15:59:27.884Z,30.10
2023-03-21T16:02:31.892Z,21.48
2023-03-21T16:05:35.781Z,25.10
2023-03-21T16:08:48.624Z,23.05
2023-03-21T16:11:59.143Z,24.50
2023-03-21T16:15:03.875Z,22.40
2023-03-21T16:18:10.896Z,26.90
2023-03-21T16:21:16.388Z,21.33
2023-03-21T16:24:20.456Z,24.60
2023-03-21T16:27:29.436Z,24.08
2023-03-21T16:30:32.815Z,21.38
2023-03-21T16:33:42.935Z,18.30
2023-03-21T16:36:47.416Z,18.50
2023-03-21T16:40:02.231Z,16.80
2023-03-21T16:43:11.813Z,16.60
2023-03-21T16:46:20.275Z,23.60
2023-03-21T16:49:25.162Z,21.15
2023-03-21T16:52:28.613Z,21.90
2023-03-21T16:55:34.999Z,19.08
2023-03-21T16:58:38.865Z,20.08
2023-03-21T17:01:46.471Z,17.90
2023-03-21T17:04:49.988Z,17.30
2023-03-21T17:08:02.562Z,23.51
2023-03-21T17:11:10.094Z,20.38
2023-03-21T17:14:16.561Z,21.98
2023-03-21T17:17:20.890Z,22.90
2023-03-21T17:20:26.052Z,18.75
2023-03-21T17:23:39.748Z,22.10
2023-03-21T17:26:45.376Z,25.60
2023-03-21T17:29:51.233Z,21.17
2023-03-21T17:32:55.529Z,18.90
2023-03-21T17:36:06.280Z,17.65
2023-03-21T17:39:19.318Z,18.52
2023-03-21T17:42:22.741Z,21.77
2023-03-21T17:45:26.307Z,21.70
2023-03-21T17:48:29.896Z,17.80
2023-03-21T17:51:33.682Z,23.20
2023-03-21T17:54:42.493Z,16.95
2023-03-21T17:57:50.781Z,23.40
2023-03-21T18:01:05.131Z,18.17
2023-03-21T18:04:18.727Z,18.13
2023-03-21T18:07:53.051Z,25.70
2023-03-21T18:10:46.915Z,18.20
2023-03-21T18:13:50.640Z,18.38
2023-03-21T18:16:58.739Z,16.38
2023-03-21T18:20:02.781Z,16.40
2023-03-21T18:23:06.632Z,17.65
2023-03-21T18:26:11.355Z,15.35
2023-03-21T18:32:54.486Z,18.67
2023-03-21T18:36:07.001Z,14.32
2023-03-21T18:39:13.665Z,22.67
2023-03-21T18:42:18.118Z,19.80
2023-03-21T18:45:25.645Z,16.90
2023-03-21T18:48:32.394Z,16.20
2023-03-21T18:51:48.366Z,18.98
2023-03-21T18:54:51.845Z,22.33
2023-03-21T18:57:56.399Z,16.88
2023-03-21T19:01:02.165Z,18.13
2023-03-21T19:04:25.625Z,19.33
2023-03-21T19:07:39.960Z,20.38
2023-03-21T19:10:51.365Z,20.92
2023-03-21T19:13:55.225Z,19.80
2023-03-21T19:20:28.286Z,21.17
2023-03-21T19:24:17.992Z,14.25
2023-03-21T19:27:16.719Z,20.70
2023-03-21T19:30:22.302Z,20.63
2023-03-21T19:33:35.949Z,18.85
2023-03-21T19:36:45.781Z,18.92
2023-03-21T19:39:53.287Z,18.55
2023-03-21T19:42:57.549Z,19.05
2023-03-21T19:46:02.404Z,18.73
2023-03-21T19:49:06.849Z,15.82
2023-03-21T19:52:11.311Z,19.40
2023-03-21T19:55:15.399Z,18.95
2023-03-21T19:58:22.753Z,14.85
2023-03-21T20:01:37.125Z,15.85
2023-03-21T20:04:40.947Z,12.27
2023-03-21T20:07:44.919Z,14.00
2023-03-21T20:10:48.967Z,15.77
2023-03-21T20:13:52.150Z,12.23
2023-03-21T20:16:57.647Z,14.57
2023-03-21T20:20:01.932Z,13.65
2023-03-21T20:23:08.283Z,14.98
2023-03-21T20:26:13.385Z,14.35
2023-03-21T20:30:07.024Z,14.07
2023-03-21T20:32:41.888Z,12.60
2023-03-21T20:42:24.185Z,13.25
2023-03-21T20:45:33.512Z,13.27
2023-03-21T20:48:38.665Z,11.10
2023-03-21T20:55:09.459Z,11.27
2023-03-21T20:58:31.005Z,13.43
2023-03-21T21:01:48.463Z,11.77
2023-03-21T21:05:23.718Z,10.40
2023-03-21T21:08:19.617Z,12.15
2023-03-21T21:14:48.303Z,12.60
2023-03-21T21:18:06.557Z,11.80
2023-03-21T21:21:10.711Z,11.30
2023-03-21T21:24:14.691Z,10.93
2023-03-21T21:27:18.706Z,10.90
2023-03-21T21:30:26.921Z,13.10
2023-03-21T21:33:30.202Z,12.32
2023-03-21T21:36:33.537Z,11.75
2023-03-21T21:39:38.357Z,9.40
2023-03-21T21:42:43.507Z,12.95
2023-03-21T21:45:48.265Z,10.40
2023-03-21T21:49:02.866Z,8.20
2023-03-21T21:52:06.753Z,8.93
2023-03-21T21:55:11.925Z,10.27
2023-03-21T21:58:19.132Z,8.73
2023-03-21T22:01:23.046Z,8.05
2023-03-21T22:04:28.952Z,9.35
2023-03-21T22:07:34.031Z,10.95
2023-03-21T22:10:37.909Z,12.18
2023-03-21T22:13:41.733Z,10.07
2023-03-21T22:16:50.797Z,12.95
2023-03-21T22:20:05.059Z,9.95
2023-03-21T22:23:09.964Z,10.63
2023-03-21T22:26:13.649Z,12.20
2023-03-21T22:29:18.308Z,9.80
2023-03-21T22:32:22.198Z,10.70
2023-03-21T22:35:26.793Z,10.25
2023-03-21T22:38:30.295Z,9.27
2023-03-21T22:41:33.967Z,10.93
2023-03-21T22:44:37.600Z,10.15
2023-03-21T22:47:47.388Z,11.35
2023-03-21T22:50:51.210Z,9.77
2023-03-21T22:54:04.910Z,11.00
2023-03-21T22:57:09.179Z,10.93
2023-03-21T23:00:18.812Z,12.48
2023-03-21T23:03:26.932Z,11.73
2023-03-21T23:09:39.238Z,11.85
2023-03-21T23:12:42.617Z,8.13
2023-03-21T23:15:48.314Z,8.82
2023-03-21T23:18:54.163Z,9.95
2023-03-21T23:21:57.841Z,9.55
2023-03-21T23:25:12.352Z,8.30
2023-03-21T23:28:15.814Z,10.32
2023-03-21T23:31:25.192Z,12.60
2023-03-21T23:34:29.167Z,8.50
2023-03-21T23:37:33.706Z,10.32
2023-03-21T23:40:39.084Z,11.40
2023-03-21T23:43:44.109Z,9.55
2023-03-21T23:46:53.065Z,9.20
2023-03-21T23:50:08.207Z,9.98
2023-03-21T23:53:12.192Z,10.60
2023-03-21T23:56:22.352Z,10.55
2023-03-21T23:59:36.457Z,13.57
